Main page
METAR-TAF:

METAR-TAF

Airports :

Amsterdam Airport Schiphol

Amsterdam, Netherlands

latitude: 52-18N, longitude: 004-46E, elevation: -4 m

Current weather observation

The report was made 32 minutes ago, at 05:25 UTC
Wind 9 kt from the North/Northwest, varying between Northwest and North/Northeast
Temperature 6°C
Humidity 81%
Pressure 1024 hPa
Visibility 10 km or more
Scattered clouds at a height of 2200 ft, Towering cumulus.
Broken clouds at a height of 3700 ft
light rain showers

METAR: EHAM 110525Z 34009KT 310V020 9999 -SHRA SCT022TCU BKN037 06/03 Q1024 NOSIG

Time: 06:57 (05:57 UTC)

Forecast

The report was made 41 minutes ago, at 05:16 UTC
Forecast valid from 11 at 06 UTC to 12 at 12 UTC
Wind 6 kt from the Northwest
Visibility 10 km or more
Scattered clouds at a height of 3000 ft
Probability 30% :
Temporary
from 11 at 06 UTC to 11 at 09 UTC
Scattered clouds at a height of 2200 ft, Towering cumulus.
light rain showers

TAF: EHAM 110516Z 1106/1212 32006KT 9999 SCT030 PROB30 TEMPO 1106/1109 -SHRA SCT022TCU

Weather observations and forecasts of more than 4000 airports (METAR and TAF reports).

The available stations are represented by yellow and red dots on the map.

Hover mouse over dot to see the name of the station.

Then click to see weather observations and forecasts.

To change the map : click on the green buttons with a black cross to zoom in, on the green button with a dash to zoom out, or on the green arrows for adjacent maps.


METAR-TAF: